Time;durP1;ratioP1;P1;durP2;ratioP2;P2;SDS_P1;SDS_P2;PMS_P1;PMS_P2;Temp;Humidity;BMP_temperature;BMP_pressure;BME280_temperature;BME280_humidity;BME280_pressure;Samples;Min_cycle;Max_cycle;Signal;HPM_P1;HPM_P2
2023/06/08 00:02:28;;;;;;;2.22;1.27;;;15.30;99.90;;;;;;4962780;28;20729;-76
2023/06/08 00:05:02;;;;;;;1.35;1.10;;;15.30;99.90;;;;;;4966589;28;20193;-75
2023/06/08 00:07:34;;;;;;;2.40;1.40;;;15.40;99.90;;;;;;4968593;28;20206;-75
2023/06/08 00:10:05;;;;;;;1.73;1.20;;;15.50;99.90;;;;;;4968145;28;20193;-79
2023/06/08 00:12:36;;;;;;;2.30;1.15;;;15.60;99.90;;;;;;4964770;28;21128;-79
2023/06/08 00:15:09;;;;;;;3.15;1.20;;;15.70;99.90;;;;;;4971405;28;20251;-86
2023/06/08 00:17:43;;;;;;;2.20;1.30;;;15.90;99.90;;;;;;4973724;28;20192;-82
2023/06/08 00:20:15;;;;;;;2.75;1.17;;;15.90;99.90;;;;;;4973232;28;20227;-80
2023/06/08 00:22:47;;;;;;;1.45;1.00;;;16.00;99.90;;;;;;4970020;28;20207;-77
2023/06/08 00:25:18;;;;;;;2.95;1.25;;;16.00;99.90;;;;;;4972121;28;20265;-78
2023/06/08 00:27:50;;;;;;;2.83;1.25;;;16.00;99.90;;;;;;4972185;28;20228;-75
2023/06/08 00:30:21;;;;;;;2.08;1.05;;;16.10;99.90;;;;;;4968953;28;20207;-75
2023/06/08 00:32:54;;;;;;;1.63;0.90;;;16.10;99.90;;;;;;4969081;28;20564;-75
2023/06/08 00:35:25;;;;;;;3.38;1.10;;;16.10;99.90;;;;;;4971373;28;20652;-76
2023/06/08 00:37:57;;;;;;;2.17;1.20;;;16.10;99.90;;;;;;4970500;28;20193;-76
2023/06/08 00:40:28;;;;;;;2.25;0.90;;;16.10;99.90;;;;;;4966271;28;20216;-82
2023/06/08 00:42:59;;;;;;;2.65;1.00;;;16.10;99.90;;;;;;4974374;28;20200;-75
2023/06/08 00:45:30;;;;;;;2.65;1.00;;;16.10;99.90;;;;;;4973336;28;20667;-78
2023/06/08 00:48:03;;;;;;;3.50;0.90;;;16.10;99.90;;;;;;4973293;28;20204;-77
2023/06/08 00:50:35;;;;;;;4.72;1.00;;;16.10;99.90;;;;;;4973199;28;20593;-75
2023/06/08 00:53:06;;;;;;;1.33;0.82;;;16.10;99.90;;;;;;4977277;28;20636;-83
2023/06/08 00:55:37;;;;;;;2.63;1.10;;;16.10;99.90;;;;;;4974203;28;20231;-77
2023/06/08 00:58:13;;;;;;;2.28;0.90;;;16.10;99.90;;;;;;4939107;29;20200;-75
2023/06/08 01:00:46;;;;;;;3.90;1.00;;;16.10;99.90;;;;;;4939332;29;20307;-80
2023/06/08 01:03:20;;;;;;;6.22;1.15;;;16.10;99.90;;;;;;4933850;29;20657;-77
2023/06/08 01:05:52;;;;;;;1.83;0.80;;;16.20;99.90;;;;;;4938018;29;20198;-80
2023/06/08 01:08:33;;;;;;;2.72;0.98;;;16.20;99.90;;;;;;4936051;29;20202;-78
2023/06/08 01:11:15;;;;;;;1.20;1.00;;;16.30;99.90;;;;;;4939057;29;20209;-76
2023/06/08 01:13:54;;;;;;;2.47;1.10;;;16.40;99.90;;;;;;4939444;29;20200;-78
2023/06/08 01:16:32;;;;;;;3.63;0.93;;;16.60;99.90;;;;;;4938081;29;20189;-79
2023/06/08 01:19:10;;;;;;;1.33;0.90;;;16.70;99.90;;;;;;4923741;29;20216;-82
2023/06/08 01:21:54;;;;;;;1.23;0.82;;;16.80;99.90;;;;;;4937227;29;20639;-77
2023/06/08 01:24:35;;;;;;;1.50;0.90;;;16.90;99.90;;;;;;4920228;29;20579;-78
2023/06/08 01:27:09;;;;;;;2.75;0.88;;;17.00;99.90;;;;;;4920189;29;20194;-76
2023/06/08 01:29:41;;;;;;;1.00;0.90;;;17.00;99.90;;;;;;4933154;29;20206;-89
2023/06/08 01:32:13;;;;;;;1.10;0.80;;;17.00;99.90;;;;;;4938279;29;20200;-76
2023/06/08 01:34:44;;;;;;;1.15;0.98;;;17.00;99.90;;;;;;4921131;29;20204;-85
2023/06/08 01:37:20;;;;;;;1.65;0.93;;;17.00;99.90;;;;;;4938895;29;20190;-77
2023/06/08 01:39:59;;;;;;;1.42;0.90;;;17.00;99.90;;;;;;4937525;29;20224;-83
2023/06/08 01:42:32;;;;;;;2.67;0.90;;;16.90;99.90;;;;;;4937803;29;20225;-83
2023/06/08 01:45:09;;;;;;;1.25;0.80;;;16.90;99.90;;;;;;4938756;29;20198;-83
2023/06/08 01:47:49;;;;;;;1.55;0.90;;;16.90;99.90;;;;;;4938811;29;20194;-86
2023/06/08 01:50:22;;;;;;;0.75;0.68;;;16.90;99.90;;;;;;4942468;29;20198;-78
2023/06/08 01:52:53;;;;;;;0.75;0.70;;;16.80;99.90;;;;;;4937798;29;20193;-81
2023/06/08 01:55:27;;;;;;;3.28;0.90;;;16.80;99.90;;;;;;4938450;29;20289;-76
2023/06/08 01:57:59;;;;;;;3.15;0.80;;;16.80;99.90;;;;;;4973250;28;20325;-78
2023/06/08 02:00:30;;;;;;;0.77;0.77;;;16.80;99.90;;;;;;4976896;28;20206;-82
2023/06/08 02:03:01;;;;;;;1.30;0.80;;;16.80;99.90;;;;;;4975722;28;20570;-76
2023/06/08 02:05:32;;;;;;;1.50;0.70;;;16.80;99.90;;;;;;4975752;28;20203;-79
2023/06/08 02:08:03;;;;;;;3.78;1.02;;;16.80;99.90;;;;;;4964694;28;20690;-76
2023/06/08 02:10:36;;;;;;;1.50;0.80;;;16.70;99.90;;;;;;4976194;28;20207;-75
2023/06/08 02:13:07;;;;;;;1.08;0.80;;;16.70;99.90;;;;;;4975454;28;20188;-83
2023/06/08 02:15:38;;;;;;;2.25;0.80;;;16.70;99.90;;;;;;4976649;28;20192;-78
2023/06/08 02:18:10;;;;;;;1.33;0.90;;;16.60;99.90;;;;;;4976081;28;20204;-79
2023/06/08 02:20:41;;;;;;;2.25;0.90;;;16.60;99.90;;;;;;4976460;28;20283;-82
2023/06/08 02:23:12;;;;;;;1.77;1.08;;;16.60;99.90;;;;;;4976470;28;20188;-76
2023/06/08 02:25:45;;;;;;;3.15;0.90;;;16.60;99.90;;;;;;4976448;28;20578;-76
2023/06/08 02:28:16;;;;;;;0.70;0.70;;;16.60;99.90;;;;;;4976188;28;20210;-77
2023/06/08 02:30:47;;;;;;;1.00;0.75;;;16.60;99.90;;;;;;4975186;28;20196;-76
2023/06/08 02:33:20;;;;;;;1.35;0.80;;;16.60;99.90;;;;;;4976441;28;20279;-76
2023/06/08 02:35:51;;;;;;;1.20;0.80;;;16.60;99.90;;;;;;4975483;28;20196;-80
2023/06/08 02:38:22;;;;;;;1.35;0.70;;;16.60;99.90;;;;;;4975327;28;20192;-82
2023/06/08 02:40:55;;;;;;;1.60;0.80;;;16.70;99.90;;;;;;4976059;28;20224;-77
2023/06/08 02:43:26;;;;;;;0.77;0.77;;;16.70;99.90;;;;;;4976788;28;20548;-76
2023/06/08 02:45:58;;;;;;;3.97;0.90;;;16.80;99.90;;;;;;4977590;28;20204;-82
2023/06/08 02:48:29;;;;;;;0.95;0.80;;;16.80;99.90;;;;;;4976093;28;20210;-75
2023/06/08 02:51:00;;;;;;;1.10;0.80;;;16.90;99.90;;;;;;4976578;28;20204;-76
2023/06/08 02:53:31;;;;;;;3.05;1.00;;;16.90;99.90;;;;;;4975199;28;20276;-77
2023/06/08 02:56:04;;;;;;;2.75;0.80;;;16.90;99.90;;;;;;4956390;28;20714;-86
2023/06/08 02:58:36;;;;;;;1.80;0.85;;;17.00;99.90;;;;;;4962973;28;20207;-76
2023/06/08 03:01:14;;;;;;;1.02;0.80;;;17.10;99.90;;;;;;4976342;28;20730;-82
2023/06/08 03:03:46;;;;;;;1.27;0.80;;;17.10;99.90;;;;;;4975870;28;20231;-77
2023/06/08 03:06:18;;;;;;;1.77;0.80;;;17.20;99.90;;;;;;4975800;28;20203;-76
2023/06/08 03:08:53;;;;;;;1.92;0.82;;;17.30;99.90;;;;;;4974780;28;20266;-85
2023/06/08 03:11:26;;;;;;;1.48;1.05;;;17.30;99.90;;;;;;4975730;28;20286;-77
2023/06/08 03:13:58;;;;;;;1.17;0.82;;;17.40;99.90;;;;;;4975737;28;20188;-76
2023/06/08 03:16:29;;;;;;;3.17;0.80;;;17.40;99.90;;;;;;4971825;28;20197;-79
2023/06/08 03:19:00;;;;;;;1.42;0.80;;;17.40;99.90;;;;;;4974629;28;20206;-77
2023/06/08 03:21:31;;;;;;;1.55;0.60;;;17.40;99.90;;;;;;4974404;28;20594;-77
2023/06/08 03:24:02;;;;;;;1.08;0.80;;;17.30;99.90;;;;;;4972761;28;20274;-81
2023/06/08 03:26:35;;;;;;;2.30;0.90;;;17.30;99.90;;;;;;4956297;28;20243;-78
2023/06/08 03:29:06;;;;;;;2.95;1.20;;;17.20;99.90;;;;;;4956005;28;20208;-78
2023/06/08 03:31:37;;;;;;;4.30;1.00;;;17.20;99.90;;;;;;4956004;28;20649;-74
2023/06/08 03:34:09;;;;;;;2.45;1.10;;;17.20;99.90;;;;;;4958068;28;20248;-75
2023/06/08 03:36:40;;;;;;;2.63;0.93;;;17.10;99.90;;;;;;4975000;28;20215;-75
2023/06/08 03:39:11;;;;;;;3.03;0.93;;;17.10;99.90;;;;;;4973659;28;20284;-75
2023/06/08 03:41:44;;;;;;;2.42;0.95;;;17.10;99.90;;;;;;4973575;28;20226;-78
2023/06/08 03:44:15;;;;;;;1.50;0.80;;;17.10;99.90;;;;;;4972874;28;20223;-78
2023/06/08 03:46:46;;;;;;;3.22;1.00;;;17.10;99.90;;;;;;4974901;28;20203;-78
2023/06/08 03:49:17;;;;;;;1.75;0.90;;;17.00;99.90;;;;;;4974920;28;20192;-75
2023/06/08 03:51:49;;;;;;;3.50;1.30;;;17.00;99.90;;;;;;4974868;28;20200;-75
2023/06/08 03:54:20;;;;;;;2.65;1.02;;;16.90;99.90;;;;;;4971116;28;20218;-83
2023/06/08 03:56:53;;;;;;;2.25;1.13;;;16.90;99.90;;;;;;4974451;28;20244;-83
2023/06/08 03:59:24;;;;;;;1.88;0.88;;;16.80;99.90;;;;;;4974770;28;20207;-78
2023/06/08 04:01:55;;;;;;;2.88;0.80;;;16.80;99.90;;;;;;4973496;28;20246;-79
2023/06/08 04:04:29;;;;;;;2.42;0.90;;;16.70;99.90;;;;;;4974806;28;20200;-79
2023/06/08 04:07:00;;;;;;;1.33;0.80;;;16.70;99.90;;;;;;4973686;28;20204;-75
2023/06/08 04:09:31;;;;;;;1.65;0.80;;;16.60;99.90;;;;;;4973402;28;20215;-75
2023/06/08 04:12:05;;;;;;;0.88;0.73;;;16.50;99.90;;;;;;4973132;28;20204;-76
2023/06/08 04:14:36;;;;;;;1.73;0.82;;;16.50;99.90;;;;;;4974645;28;20531;-74
2023/06/08 04:17:07;;;;;;;0.93;0.82;;;16.40;99.90;;;;;;4974427;28;20194;-78
2023/06/08 04:19:38;;;;;;;1.33;0.90;;;16.40;99.90;;;;;;4974677;28;20610;-75
2023/06/08 04:22:09;;;;;;;0.90;0.90;;;16.30;99.90;;;;;;4973217;28;20216;-87
2023/06/08 04:24:41;;;;;;;1.05;0.90;;;16.30;99.90;;;;;;4972867;28;20196;-75
2023/06/08 04:27:14;;;;;;;1.83;0.70;;;16.30;99.90;;;;;;4974358;28;20198;-73
2023/06/08 04:29:45;;;;;;;1.08;0.80;;;16.30;99.90;;;;;;4973356;28;20222;-77
2023/06/08 04:32:16;;;;;;;2.03;1.10;;;16.30;99.90;;;;;;4976170;28;20200;-74
2023/06/08 04:34:47;;;;;;;0.80;0.80;;;16.30;99.90;;;;;;4978829;28;20215;-78
2023/06/08 04:37:18;;;;;;;1.10;0.65;;;16.30;99.90;;;;;;4977293;28;20204;-73
2023/06/08 04:39:50;;;;;;;0.90;0.75;;;16.30;99.90;;;;;;4979253;28;20193;-75
2023/06/08 04:42:24;;;;;;;2.25;0.90;;;16.30;99.90;;;;;;4976851;28;20227;-74
2023/06/08 04:44:59;;;;;;;2.17;1.00;;;16.20;99.90;;;;;;4976627;28;20199;-75
2023/06/08 04:47:31;;;;;;;1.88;1.00;;;16.30;99.90;;;;;;4973962;28;20262;-75
2023/06/08 04:50:03;;;;;;;2.22;0.80;;;16.20;99.90;;;;;;4973779;28;20260;-85
2023/06/08 04:52:40;;;;;;;2.35;0.90;;;16.20;99.90;;;;;;4975306;28;20204;-78
2023/06/08 04:55:13;;;;;;;0.80;0.80;;;16.30;99.90;;;;;;4975227;28;20307;-76
2023/06/08 04:57:46;;;;;;;1.08;0.80;;;16.30;99.90;;;;;;4960430;28;20232;-75
2023/06/08 05:00:18;;;;;;;2.90;1.00;;;16.30;99.90;;;;;;4975129;28;20197;-75
2023/06/08 05:02:49;;;;;;;3.83;0.90;;;16.20;99.90;;;;;;4969978;28;20216;-75
2023/06/08 05:05:20;;;;;;;0.90;0.90;;;16.20;99.90;;;;;;4958543;28;20215;-74
2023/06/08 05:07:51;;;;;;;1.65;0.80;;;16.20;99.90;;;;;;4958416;28;20201;-75
2023/06/08 05:10:23;;;;;;;1.25;0.80;;;16.20;99.90;;;;;;4969266;28;20200;-74
2023/06/08 05:12:56;;;;;;;2.38;1.00;;;16.10;99.90;;;;;;4976935;28;20196;-83
2023/06/08 05:15:27;;;;;;;1.17;1.05;;;16.10;99.90;;;;;;4977935;28;20199;-75
2023/06/08 05:17:58;;;;;;;1.02;0.93;;;16.10;99.90;;;;;;4976371;28;20200;-77
2023/06/08 05:20:30;;;;;;;1.75;0.85;;;16.10;99.90;;;;;;4977544;28;20197;-83
2023/06/08 05:23:01;;;;;;;2.03;0.77;;;16.00;99.90;;;;;;4977831;28;20275;-76
2023/06/08 05:25:36;;;;;;;1.95;0.98;;;16.00;99.90;;;;;;4977489;28;20196;-75
2023/06/08 05:28:09;;;;;;;2.13;0.93;;;16.00;99.90;;;;;;4964172;28;20200;-84
2023/06/08 05:30:41;;;;;;;2.67;0.80;;;16.00;99.90;;;;;;4974439;28;20209;-74
2023/06/08 05:33:12;;;;;;;1.75;1.00;;;16.00;99.90;;;;;;4977308;28;20226;-74
2023/06/08 05:35:43;;;;;;;3.25;1.20;;;16.00;99.90;;;;;;4977160;28;20279;-75
2023/06/08 05:38:14;;;;;;;1.08;0.95;;;15.90;99.90;;;;;;4977287;28;20193;-74
2023/06/08 05:40:45;;;;;;;3.20;1.00;;;16.00;99.90;;;;;;4975995;28;20211;-78
2023/06/08 05:43:18;;;;;;;1.48;0.90;;;15.90;99.90;;;;;;4976214;28;20679;-76
2023/06/08 05:45:49;;;;;;;2.28;1.10;;;16.00;99.90;;;;;;4974488;28;20196;-78
2023/06/08 05:48:20;;;;;;;2.15;1.20;;;15.90;99.90;;;;;;4975354;28;20200;-76
2023/06/08 05:50:52;;;;;;;7.57;4.18;;;16.00;99.90;;;;;;4963376;28;20201;-76
2023/06/08 05:53:23;;;;;;;2.38;1.80;;;15.90;99.90;;;;;;4958144;28;20196;-83
2023/06/08 05:55:54;;;;;;;1.55;1.45;;;15.90;99.90;;;;;;4970993;28;20234;-76
2023/06/08 05:58:27;;;;;;;2.58;1.40;;;16.00;99.90;;;;;;4976402;28;20200;-83
2023/06/08 06:00:59;;;;;;;1.38;1.20;;;16.00;99.90;;;;;;4976074;28;20255;-85
2023/06/08 06:03:30;;;;;;;2.05;1.20;;;16.00;99.90;;;;;;4976870;28;20260;-76
2023/06/08 06:06:01;;;;;;;1.73;1.00;;;16.00;99.90;;;;;;4967002;28;20208;-80
2023/06/08 06:08:32;;;;;;;2.63;1.30;;;16.00;99.90;;;;;;4977013;28;20648;-80
2023/06/08 06:11:03;;;;;;;1.65;1.10;;;16.00;99.90;;;;;;4975610;28;20203;-80
2023/06/08 06:13:36;;;;;;;2.08;1.33;;;16.00;99.90;;;;;;4976254;28;20208;-87
2023/06/08 06:16:07;;;;;;;2.03;1.40;;;16.00;99.90;;;;;;4976498;28;20202;-76
2023/06/08 06:18:39;;;;;;;1.40;1.30;;;16.00;99.90;;;;;;4976367;28;20197;-78
2023/06/08 06:21:10;;;;;;;2.42;1.30;;;16.00;99.90;;;;;;4976474;28;20196;-75
2023/06/08 06:23:41;;;;;;;1.10;1.00;;;16.00;99.90;;;;;;4973911;28;20223;-75
2023/06/08 06:26:12;;;;;;;1.48;1.10;;;16.00;99.90;;;;;;4974104;28;20196;-83
2023/06/08 06:28:45;;;;;;;2.10;1.10;;;16.00;99.90;;;;;;4973080;28;20196;-80
2023/06/08 06:31:16;;;;;;;3.53;1.00;;;16.00;99.90;;;;;;4976148;28;20207;-82
2023/06/08 06:33:47;;;;;;;1.77;1.02;;;16.10;99.90;;;;;;4976581;28;20196;-75
2023/06/08 06:36:18;;;;;;;2.53;1.10;;;16.10;99.90;;;;;;4974994;28;20200;-79
2023/06/08 06:38:50;;;;;;;1.88;1.20;;;16.10;99.90;;;;;;4975359;28;20200;-87
2023/06/08 06:41:21;;;;;;;1.48;1.00;;;16.10;99.90;;;;;;4976215;28;20640;-76
2023/06/08 06:43:54;;;;;;;1.70;1.17;;;16.10;99.90;;;;;;4976130;28;20224;-75
2023/06/08 06:46:25;;;;;;;1.33;0.85;;;16.10;99.90;;;;;;4975353;28;20243;-75
2023/06/08 06:48:56;;;;;;;1.58;1.08;;;16.10;99.90;;;;;;4974588;28;20297;-75
2023/06/08 06:51:27;;;;;;;2.17;0.90;;;16.20;99.90;;;;;;4974716;28;20204;-76
2023/06/08 06:53:58;;;;;;;1.27;0.90;;;16.10;99.90;;;;;;4974694;28;20215;-84
2023/06/08 06:56:29;;;;;;;3.40;1.00;;;16.10;99.90;;;;;;4975658;28;20239;-75
2023/06/08 06:59:03;;;;;;;1.45;1.27;;;16.10;99.90;;;;;;4974883;28;20246;-76
2023/06/08 07:01:36;;;;;;;1.25;1.15;;;16.10;99.90;;;;;;4976178;28;20196;-75
2023/06/08 07:04:08;;;;;;;2.30;1.25;;;16.10;99.90;;;;;;4974613;28;20224;-86
2023/06/08 07:06:41;;;;;;;2.60;1.45;;;16.10;99.90;;;;;;4972957;28;20199;-75
2023/06/08 07:09:12;;;;;;;2.80;1.67;;;16.10;99.90;;;;;;4961444;28;20196;-79
2023/06/08 07:11:43;;;;;;;3.33;1.70;;;16.10;99.90;;;;;;4975628;28;20283;-80
2023/06/08 07:14:16;;;;;;;2.58;1.73;;;16.10;99.90;;;;;;4975728;28;20199;-75
2023/06/08 07:16:48;;;;;;;2.75;1.80;;;16.10;99.90;;;;;;4975671;28;20202;-76
2023/06/08 07:19:19;;;;;;;2.30;1.15;;;16.10;99.90;;;;;;4974590;28;20208;-88
2023/06/08 07:21:52;;;;;;;2.33;1.30;;;16.10;99.90;;;;;;4975672;28;20569;-76
2023/06/08 07:24:23;;;;;;;2.70;1.33;;;16.00;99.90;;;;;;4975427;28;20224;-76
2023/06/08 07:26:56;;;;;;;3.15;1.63;;;16.00;99.90;;;;;;4975747;28;20279;-81
2023/06/08 07:29:29;;;;;;;3.22;1.70;;;16.00;99.90;;;;;;4978309;28;20188;-76
2023/06/08 07:32:01;;;;;;;4.97;1.90;;;16.00;99.90;;;;;;4975553;28;20202;-76
2023/06/08 07:34:32;;;;;;;3.45;1.98;;;15.90;99.90;;;;;;4972972;28;20243;-80
2023/06/08 07:37:04;;;;;;;3.88;1.30;;;15.90;99.90;;;;;;4974469;28;20539;-75
2023/06/08 07:39:35;;;;;;;2.55;1.45;;;15.90;99.90;;;;;;4975573;28;20284;-75
2023/06/08 07:42:06;;;;;;;1.50;1.40;;;15.90;99.90;;;;;;4975075;28;20283;-76
2023/06/08 07:44:41;;;;;;;2.10;1.30;;;15.80;99.90;;;;;;4975160;28;20196;-75
2023/06/08 07:47:12;;;;;;;3.53;1.42;;;15.60;99.90;;;;;;4974811;28;20624;-85
2023/06/08 07:49:45;;;;;;;1.75;1.23;;;15.80;99.90;;;;;;4974117;28;20210;-75
2023/06/08 07:52:16;;;;;;;2.22;1.40;;;15.70;99.90;;;;;;4975059;28;20195;-85
2023/06/08 07:54:48;;;;;;;1.77;1.17;;;15.70;99.90;;;;;;4973597;28;20577;-76
2023/06/08 07:57:19;;;;;;;2.92;1.30;;;15.70;99.90;;;;;;4966428;28;20238;-75
2023/06/08 07:59:52;;;;;;;2.35;1.40;;;15.70;99.90;;;;;;4974855;28;20192;-77
2023/06/08 08:02:24;;;;;;;1.67;1.50;;;15.60;99.90;;;;;;4973208;28;20211;-75
2023/06/08 08:04:55;;;;;;;2.70;1.60;;;15.60;99.90;;;;;;4972142;28;20251;-75
2023/06/08 08:07:26;;;;;;;2.50;1.40;;;15.60;99.90;;;;;;4974177;28;20195;-75
2023/06/08 08:09:57;;;;;;;1.55;1.10;;;15.60;99.90;;;;;;4973567;28;20207;-75
2023/06/08 08:12:28;;;;;;;1.25;1.08;;;15.60;99.90;;;;;;4973024;28;20205;-80
2023/06/08 08:15:02;;;;;;;3.13;1.40;;;15.60;99.90;;;;;;4972564;28;20200;-75
2023/06/08 08:17:33;;;;;;;1.95;1.35;;;15.70;99.90;;;;;;4974838;28;20193;-75
2023/06/08 08:20:05;;;;;;;2.78;1.40;;;15.60;99.90;;;;;;4975352;28;20200;-75
2023/06/08 08:22:39;;;;;;;3.38;1.17;;;15.60;99.90;;;;;;4968908;28;20215;-75
2023/06/08 08:25:11;;;;;;;3.92;1.38;;;15.60;99.90;;;;;;4964750;28;20201;-76
2023/06/08 08:27:42;;;;;;;2.50;1.30;;;15.60;99.90;;;;;;4975316;28;20200;-75
2023/06/08 08:30:16;;;;;;;2.20;1.15;;;15.60;99.90;;;;;;4972859;28;20211;-75
2023/06/08 08:32:47;;;;;;;2.88;1.27;;;15.60;99.90;;;;;;4973518;28;20203;-86
2023/06/08 08:35:18;;;;;;;2.97;1.83;;;15.60;99.90;;;;;;4974586;28;20202;-81
2023/06/08 08:37:49;;;;;;;5.85;1.80;;;15.50;99.90;;;;;;4974525;28;20654;-75
2023/06/08 08:40:20;;;;;;;2.38;1.70;;;15.40;99.90;;;;;;4974392;28;20195;-75
2023/06/08 08:42:59;;;;;;;2.15;1.48;;;15.30;99.90;;;;;;4974231;28;20220;-76
2023/06/08 08:45:45;;;;;;;1.55;1.40;;;15.30;99.90;;;;;;4974123;28;20199;-75
2023/06/08 08:48:18;;;;;;;2.55;1.63;;;15.20;99.90;;;;;;4973967;28;20231;-76
2023/06/08 08:50:53;;;;;;;2.80;1.60;;;15.20;99.90;;;;;;4971096;28;20659;-83
2023/06/08 08:53:30;;;;;;;2.30;1.55;;;15.10;99.90;;;;;;4974245;28;20200;-88
2023/06/08 08:56:03;;;;;;;3.15;1.73;;;15.10;99.90;;;;;;4970796;28;20246;-75
2023/06/08 08:58:35;;;;;;;3.25;2.00;;;15.00;99.90;;;;;;4973992;28;20247;-85
2023/06/08 09:01:08;;;;;;;3.67;2.05;;;15.00;99.90;;;;;;4955451;28;20197;-75
2023/06/08 09:03:41;;;;;;;3.63;1.85;;;15.00;99.90;;;;;;4954862;28;20256;-77
2023/06/08 09:06:12;;;;;;;3.28;1.98;;;14.90;99.90;;;;;;4968419;28;20219;-84
2023/06/08 09:08:43;;;;;;;2.58;1.60;;;14.90;99.90;;;;;;4969238;28;20203;-84
2023/06/08 09:11:14;;;;;;;3.67;1.80;;;14.90;99.90;;;;;;4969924;28;20255;-78
2023/06/08 09:13:45;;;;;;;2.88;1.83;;;14.90;99.90;;;;;;4954826;28;20212;-83
2023/06/08 09:16:21;;;;;;;2.90;1.90;;;14.90;99.90;;;;;;4970612;28;20555;-91
2023/06/08 09:19:08;;;;;;;2.15;1.58;;;14.90;99.90;;;;;;4968881;28;20920;-81
2023/06/08 09:21:43;;;;;;;2.38;1.58;;;15.00;99.90;;;;;;4975938;28;20239;-76
2023/06/08 09:24:16;;;;;;;2.50;1.50;;;15.00;99.90;;;;;;4977697;28;20220;-79
2023/06/08 09:26:48;;;;;;;3.80;1.60;;;15.00;99.90;;;;;;4969998;28;20553;-84
2023/06/08 09:29:36;;;;;;;3.45;1.38;;;15.00;99.90;;;;;;4981177;28;20200;-88
2023/06/08 09:32:12;;;;;;;1.65;1.42;;;15.00;99.90;;;;;;4978015;28;20196;-91
2023/06/08 09:34:53;;;;;;;2.13;1.30;;;15.00;99.90;;;;;;4976504;28;20678;-84
2023/06/08 09:37:29;;;;;;;2.72;1.25;;;15.00;99.90;;;;;;4958408;28;20201;-75
2023/06/08 09:40:01;;;;;;;1.75;1.25;;;15.00;99.90;;;;;;4958561;28;20189;-76
2023/06/08 09:42:46;;;;;;;2.33;1.55;;;15.00;99.90;;;;;;4958436;28;20240;-75
2023/06/08 09:45:19;;;;;;;2.65;1.42;;;15.00;99.90;;;;;;4974475;28;20567;-83
2023/06/08 09:47:52;;;;;;;2.92;1.50;;;15.00;99.90;;;;;;4964746;28;20201;-77
2023/06/08 09:50:23;;;;;;;2.28;1.65;;;15.00;99.90;;;;;;4967889;28;20204;-81
2023/06/08 09:52:54;;;;;;;2.35;1.73;;;14.90;99.90;;;;;;4966122;28;20204;-75
2023/06/08 09:55:26;;;;;;;2.83;1.73;;;14.80;99.90;;;;;;4976252;28;20224;-75
2023/06/08 09:57:58;;;;;;;2.47;1.80;;;14.70;99.90;;;;;;4975898;28;20311;-75
2023/06/08 10:00:30;;;;;;;2.42;1.90;;;14.50;99.90;;;;;;4961230;28;21030;-85
2023/06/08 10:03:10;;;;;;;3.40;2.05;;;14.50;99.90;;;;;;4974416;28;20211;-76
2023/06/08 10:05:46;;;;;;;4.18;2.28;;;14.40;99.90;;;;;;4970453;28;20193;-75
2023/06/08 10:08:22;;;;;;;2.92;2.10;;;14.30;99.90;;;;;;4973321;28;20200;-80
2023/06/08 10:10:53;;;;;;;3.80;2.00;;;14.20;99.90;;;;;;4974727;28;20199;-80
2023/06/08 10:13:24;;;;;;;2.72;1.98;;;14.10;99.90;;;;;;4971656;28;20280;-75
2023/06/08 10:15:56;;;;;;;3.35;2.03;;;14.00;99.90;;;;;;4957229;28;20283;-76
2023/06/08 10:18:31;;;;;;;4.75;2.35;;;14.00;99.90;;;;;;4969034;28;20626;-75
2023/06/08 10:21:05;;;;;;;4.03;2.58;;;13.90;99.90;;;;;;4977365;28;20645;-77
2023/06/08 10:23:37;;;;;;;4.40;2.20;;;13.90;99.90;;;;;;4976654;28;20675;-75
2023/06/08 10:26:09;;;;;;;4.15;2.38;;;13.90;99.90;;;;;;4975718;28;20664;-80
2023/06/08 10:29:01;;;;;;;5.53;2.92;;;13.80;99.90;;;;;;4971200;28;20559;-75
2023/06/08 10:31:36;;;;;;;5.35;2.80;;;13.80;99.90;;;;;;4967949;28;20204;-76
2023/06/08 10:34:17;;;;;;;5.25;2.90;;;13.70;99.90;;;;;;4956660;28;20203;-76
2023/06/08 10:36:48;;;;;;;5.18;3.17;;;13.60;99.90;;;;;;4970117;28;20200;-78
2023/06/08 10:39:21;;;;;;;6.38;3.22;;;13.50;99.90;;;;;;4974895;28;20628;-83
2023/06/08 10:41:59;;;;;;;4.60;2.90;;;13.40;99.90;;;;;;4975931;28;20199;-76
2023/06/08 10:44:31;;;;;;;5.00;3.20;;;13.30;99.90;;;;;;4961548;28;20336;-76
2023/06/08 10:47:03;;;;;;;4.78;3.00;;;13.30;99.90;;;;;;4957405;28;20240;-75
2023/06/08 10:49:38;;;;;;;7.97;3.28;;;13.20;99.90;;;;;;4967414;28;20212;-75
2023/06/08 10:52:11;;;;;;;4.93;3.00;;;13.10;99.90;;;;;;4974149;28;20605;-76
2023/06/08 10:54:55;;;;;;;4.55;3.00;;;13.10;99.90;;;;;;4970676;28;20249;-76
2023/06/08 10:57:45;;;;;;;4.13;2.95;;;13.10;99.90;;;;;;4976033;28;20319;-75
2023/06/08 11:00:49;;;;;;;5.90;3.00;;;13.10;99.90;;;;;;4971061;28;20236;-81
2023/06/08 11:03:21;;;;;;;5.70;3.50;;;13.10;99.90;;;;;;4955060;28;20210;-76
2023/06/08 11:05:55;;;;;;;5.45;3.58;;;13.10;99.90;;;;;;4956529;28;20214;-85
2023/06/08 11:08:26;;;;;;;5.00;3.50;;;13.10;99.90;;;;;;4966261;28;20196;-76
2023/06/08 11:10:59;;;;;;;5.18;3.58;;;13.10;99.90;;;;;;4975811;28;20200;-76
2023/06/08 11:13:30;;;;;;;5.10;3.53;;;13.00;99.90;;;;;;4975913;28;20196;-77
2023/06/08 11:16:02;;;;;;;4.90;3.55;;;13.00;99.90;;;;;;4975837;28;20239;-74
2023/06/08 11:18:35;;;;;;;4.15;3.13;;;12.90;99.90;;;;;;4975040;28;20208;-76
2023/06/08 11:21:08;;;;;;;3.47;2.88;;;12.80;99.90;;;;;;4975584;28;20239;-75
2023/06/08 11:23:40;;;;;;;3.72;2.53;;;12.90;99.90;;;;;;4975353;28;20196;-75
2023/06/08 11:26:13;;;;;;;4.93;2.92;;;12.80;99.90;;;;;;4975838;28;20663;-84
2023/06/08 11:28:48;;;;;;;4.68;2.85;;;12.70;99.90;;;;;;4973045;28;20852;-75
2023/06/08 11:31:19;;;;;;;4.50;2.88;;;12.70;99.90;;;;;;4975315;28;20279;-75
2023/06/08 11:33:51;;;;;;;5.25;2.65;;;12.60;99.90;;;;;;4975389;28;20678;-76
2023/06/08 11:36:25;;;;;;;4.07;2.55;;;12.60;99.90;;;;;;4975305;28;20199;-75
2023/06/08 11:39:00;;;;;;;5.63;2.55;;;12.60;99.90;;;;;;4975060;28;20202;-75
2023/06/08 11:41:32;;;;;;;4.80;2.63;;;12.60;99.90;;;;;;4973251;28;20199;-80
2023/06/08 11:44:03;;;;;;;6.97;3.33;;;12.60;99.90;;;;;;4973851;28;20219;-85
2023/06/08 11:46:34;;;;;;;6.22;3.50;;;12.60;99.90;;;;;;4975274;28;20196;-75
2023/06/08 11:49:11;;;;;;;6.93;3.55;;;12.50;99.90;;;;;;4966771;28;20197;-80
2023/06/08 11:51:52;;;;;;;3.97;2.83;;;12.50;99.90;;;;;;4956157;28;20337;-75
2023/06/08 11:54:25;;;;;;;5.55;3.10;;;12.50;99.90;;;;;;4955601;28;20201;-75
2023/06/08 11:56:56;;;;;;;5.43;3.25;;;12.50;99.90;;;;;;4955437;28;20268;-82
2023/06/08 11:59:28;;;;;;;7.32;3.88;;;12.40;99.90;;;;;;4955786;28;20246;-75
2023/06/08 12:02:00;;;;;;;6.00;3.05;;;12.40;99.90;;;;;;4967001;28;20208;-75
2023/06/08 12:04:37;;;;;;;7.65;3.00;;;12.20;99.90;;;;;;4966778;28;20310;-75
2023/06/08 12:07:16;;;;;;;3.92;2.75;;;12.20;99.90;;;;;;4974472;28;20278;-76
2023/06/08 12:09:52;;;;;;;5.90;2.60;;;12.20;99.90;;;;;;4973329;28;20698;-74
2023/06/08 12:12:24;;;;;;;4.72;2.75;;;12.10;99.90;;;;;;4975389;28;20193;-75
2023/06/08 12:14:57;;;;;;;4.00;2.42;;;12.10;99.90;;;;;;4975360;28;20204;-75
2023/06/08 12:17:31;;;;;;;3.55;2.53;;;12.20;99.90;;;;;;4975367;28;20208;-80
2023/06/08 12:20:08;;;;;;;4.88;3.03;;;12.10;99.90;;;;;;4974762;28;20197;-78
2023/06/08 12:22:41;;;;;;;3.83;2.67;;;12.10;99.90;;;;;;4967722;28;20202;-84
2023/06/08 12:25:12;;;;;;;3.88;2.80;;;12.10;99.90;;;;;;4966103;28;20223;-75
2023/06/08 12:27:45;;;;;;;4.15;2.40;;;12.10;99.90;;;;;;4973299;28;20242;-90
2023/06/08 12:30:17;;;;;;;2.80;2.20;;;12.10;99.90;;;;;;4969757;28;20205;-76
2023/06/08 12:32:48;;;;;;;4.93;2.40;;;12.10;99.90;;;;;;4963536;28;20237;-82
2023/06/08 12:35:20;;;;;;;5.50;2.20;;;12.10;99.90;;;;;;4973337;28;20204;-76
2023/06/08 12:37:53;;;;;;;2.45;2.10;;;12.20;99.90;;;;;;4964719;28;20205;-78
2023/06/08 12:40:24;;;;;;;3.70;2.40;;;12.20;99.90;;;;;;4955480;28;20211;-84
2023/06/08 12:42:55;;;;;;;4.40;2.30;;;12.30;99.90;;;;;;4966342;28;20206;-76
2023/06/08 12:45:27;;;;;;;4.40;2.47;;;12.30;99.90;;;;;;4971095;28;20702;-81
2023/06/08 12:47:58;;;;;;;3.47;2.40;;;12.40;99.90;;;;;;4972479;28;20208;-90
2023/06/08 12:50:32;;;;;;;3.72;2.25;;;12.40;99.90;;;;;;4973792;28;20204;-87
2023/06/08 12:53:05;;;;;;;4.35;2.20;;;12.40;99.90;;;;;;4972924;28;20208;-75
2023/06/08 12:55:36;;;;;;;2.92;1.98;;;12.30;99.90;;;;;;4965794;28;20228;-82
2023/06/08 12:58:08;;;;;;;2.67;1.90;;;12.20;99.90;;;;;;4959633;28;20211;-76
2023/06/08 13:00:39;;;;;;;2.88;1.92;;;12.10;99.90;;;;;;4974455;28;20201;-90
2023/06/08 13:03:11;;;;;;;3.30;2.00;;;12.00;99.90;;;;;;4975887;28;20232;-76
2023/06/08 13:05:42;;;;;;;6.05;2.03;;;12.00;99.90;;;;;;4958360;28;20218;-89
2023/06/08 13:08:15;;;;;;;4.30;1.77;;;12.00;99.90;;;;;;4973923;28;20200;-80
2023/06/08 13:10:46;;;;;;;2.53;1.80;;;12.00;99.90;;;;;;4970820;28;20220;-75
2023/06/08 13:13:18;;;;;;;2.75;1.88;;;12.00;99.90;;;;;;4962969;28;20223;-86
2023/06/08 13:15:53;;;;;;;5.18;2.10;;;12.00;99.90;;;;;;4962065;28;20212;-84
2023/06/08 13:18:24;;;;;;;2.92;1.70;;;11.90;99.90;;;;;;4975480;28;20203;-77